sensor_id;sensor_type;location;lat;lon;timestamp;temperature;humidity
68924;DHT22;55961;52.156;20.942;2023-05-09T00:00:44;7.00;68.70
68924;DHT22;55961;52.156;20.942;2023-05-09T00:03:13;6.90;68.80
68924;DHT22;55961;52.156;20.942;2023-05-09T00:05:39;6.90;68.80
68924;DHT22;55961;52.156;20.942;2023-05-09T00:08:06;6.90;69.10
68924;DHT22;55961;52.156;20.942;2023-05-09T00:10:32;6.80;68.90
68924;DHT22;55961;52.156;20.942;2023-05-09T00:12:58;6.80;68.90
68924;DHT22;55961;52.156;20.942;2023-05-09T00:15:25;6.80;68.90
68924;DHT22;55961;52.156;20.942;2023-05-09T00:17:51;6.70;69.00
68924;DHT22;55961;52.156;20.942;2023-05-09T00:20:17;6.70;69.00
68924;DHT22;55961;52.156;20.942;2023-05-09T00:22:43;6.70;68.90
68924;DHT22;55961;52.156;20.942;2023-05-09T00:25:10;6.70;68.80
68924;DHT22;55961;52.156;20.942;2023-05-09T00:27:36;6.70;68.90
68924;DHT22;55961;52.156;20.942;2023-05-09T00:30:03;6.60;68.90
68924;DHT22;55961;52.156;20.942;2023-05-09T00:32:31;6.60;68.70
68924;DHT22;55961;52.156;20.942;2023-05-09T00:34:57;6.50;68.70
68924;DHT22;55961;52.156;20.942;2023-05-09T00:37:23;6.50;68.90
68924;DHT22;55961;52.156;20.942;2023-05-09T00:39:49;6.50;69.10
68924;DHT22;55961;52.156;20.942;2023-05-09T00:42:15;6.40;69.40
68924;DHT22;55961;52.156;20.942;2023-05-09T00:44:41;6.40;69.40
68924;DHT22;55961;52.156;20.942;2023-05-09T00:47:07;6.40;69.70
68924;DHT22;55961;52.156;20.942;2023-05-09T00:49:33;6.30;69.80
68924;DHT22;55961;52.156;20.942;2023-05-09T00:52:00;6.30;69.90
68924;DHT22;55961;52.156;20.942;2023-05-09T00:54:26;6.20;70.20
68924;DHT22;55961;52.156;20.942;2023-05-09T00:56:53;6.20;70.20
68924;DHT22;55961;52.156;20.942;2023-05-09T00:59:18;6.20;70.20
68924;DHT22;55961;52.156;20.942;2023-05-09T01:01:45;6.20;70.20
68924;DHT22;55961;52.156;20.942;2023-05-09T01:04:12;6.10;70.30
68924;DHT22;55961;52.156;20.942;2023-05-09T01:07:07;6.10;70.40
68924;DHT22;55961;52.156;20.942;2023-05-09T01:12:36;6.00;70.50
68924;DHT22;55961;52.156;20.942;2023-05-09T01:15:12;6.00;70.50
68924;DHT22;55961;52.156;20.942;2023-05-09T01:20:32;5.90;70.70
68924;DHT22;55961;52.156;20.942;2023-05-09T01:26:05;5.80;70.80
68924;DHT22;55961;52.156;20.942;2023-05-09T01:31:37;5.80;71.10
68924;DHT22;55961;52.156;20.942;2023-05-09T01:34:06;5.70;71.30
68924;DHT22;55961;52.156;20.942;2023-05-09T01:36:36;5.70;71.20
68924;DHT22;55961;52.156;20.942;2023-05-09T01:39:03;5.70;71.40
68924;DHT22;55961;52.156;20.942;2023-05-09T01:41:31;5.70;71.60
68924;DHT22;55961;52.156;20.942;2023-05-09T01:44:01;5.60;71.70
68924;DHT22;55961;52.156;20.942;2023-05-09T01:46:28;5.60;71.60
68924;DHT22;55961;52.156;20.942;2023-05-09T01:48:56;5.60;71.60
68924;DHT22;55961;52.156;20.942;2023-05-09T01:51:23;5.60;71.60
68924;DHT22;55961;52.156;20.942;2023-05-09T01:53:51;5.50;71.70
68924;DHT22;55961;52.156;20.942;2023-05-09T01:56:20;5.50;71.60
68924;DHT22;55961;52.156;20.942;2023-05-09T01:58:49;5.50;71.50
68924;DHT22;55961;52.156;20.942;2023-05-09T02:01:15;5.50;71.30
68924;DHT22;55961;52.156;20.942;2023-05-09T02:03:44;5.50;71.30
68924;DHT22;55961;52.156;20.942;2023-05-09T02:06:10;5.40;71.30
68924;DHT22;55961;52.156;20.942;2023-05-09T02:09:06;5.40;71.40
68924;DHT22;55961;52.156;20.942;2023-05-09T02:11:33;5.40;71.40
68924;DHT22;55961;52.156;20.942;2023-05-09T02:13:59;5.30;71.60
68924;DHT22;55961;52.156;20.942;2023-05-09T02:16:25;5.30;71.80
68924;DHT22;55961;52.156;20.942;2023-05-09T02:18:51;5.30;71.90
68924;DHT22;55961;52.156;20.942;2023-05-09T02:21:17;5.20;71.90
68924;DHT22;55961;52.156;20.942;2023-05-09T02:23:43;5.20;71.90
68924;DHT22;55961;52.156;20.942;2023-05-09T02:26:09;5.20;71.90
68924;DHT22;55961;52.156;20.942;2023-05-09T02:28:36;5.10;72.10
68924;DHT22;55961;52.156;20.942;2023-05-09T02:31:04;5.10;72.10
68924;DHT22;55961;52.156;20.942;2023-05-09T02:33:35;5.10;72.10
68924;DHT22;55961;52.156;20.942;2023-05-09T02:36:01;5.10;72.10
68924;DHT22;55961;52.156;20.942;2023-05-09T02:38:28;5.00;72.30
68924;DHT22;55961;52.156;20.942;2023-05-09T02:40:53;5.00;72.30
68924;DHT22;55961;52.156;20.942;2023-05-09T02:43:20;5.00;72.40
68924;DHT22;55961;52.156;20.942;2023-05-09T02:45:46;4.90;72.60
68924;DHT22;55961;52.156;20.942;2023-05-09T02:48:12;4.90;72.60
68924;DHT22;55961;52.156;20.942;2023-05-09T02:50:37;4.80;72.80
68924;DHT22;55961;52.156;20.942;2023-05-09T02:53:04;4.80;72.90
68924;DHT22;55961;52.156;20.942;2023-05-09T02:55:30;4.80;73.30
68924;DHT22;55961;52.156;20.942;2023-05-09T02:57:56;4.80;73.20
68924;DHT22;55961;52.156;20.942;2023-05-09T03:00:22;4.70;73.30
68924;DHT22;55961;52.156;20.942;2023-05-09T03:02:50;4.70;73.40
68924;DHT22;55961;52.156;20.942;2023-05-09T03:05:16;4.70;73.30
68924;DHT22;55961;52.156;20.942;2023-05-09T03:07:43;4.70;73.50
68924;DHT22;55961;52.156;20.942;2023-05-09T03:10:09;4.70;73.60
68924;DHT22;55961;52.156;20.942;2023-05-09T03:12:39;4.70;73.60
68924;DHT22;55961;52.156;20.942;2023-05-09T03:15:06;4.60;73.90
68924;DHT22;55961;52.156;20.942;2023-05-09T03:17:32;4.60;73.80
68924;DHT22;55961;52.156;20.942;2023-05-09T03:19:58;4.60;73.90
68924;DHT22;55961;52.156;20.942;2023-05-09T03:22:24;4.60;73.90
68924;DHT22;55961;52.156;20.942;2023-05-09T03:24:49;4.60;73.90
68924;DHT22;55961;52.156;20.942;2023-05-09T03:27:15;4.60;74.00
68924;DHT22;55961;52.156;20.942;2023-05-09T03:29:41;4.60;74.10
68924;DHT22;55961;52.156;20.942;2023-05-09T03:32:07;4.60;74.10
68924;DHT22;55961;52.156;20.942;2023-05-09T03:34:33;4.60;74.40
68924;DHT22;55961;52.156;20.942;2023-05-09T03:36:59;4.60;74.50
68924;DHT22;55961;52.156;20.942;2023-05-09T03:39:25;4.60;74.70
68924;DHT22;55961;52.156;20.942;2023-05-09T03:41:51;4.60;74.80
68924;DHT22;55961;52.156;20.942;2023-05-09T03:44:17;4.60;74.90
68924;DHT22;55961;52.156;20.942;2023-05-09T03:46:43;4.60;75.10
68924;DHT22;55961;52.156;20.942;2023-05-09T03:49:09;4.60;75.40
68924;DHT22;55961;52.156;20.942;2023-05-09T03:51:35;4.70;75.70
68924;DHT22;55961;52.156;20.942;2023-05-09T03:54:01;4.70;76.00
68924;DHT22;55961;52.156;20.942;2023-05-09T03:56:27;4.70;76.20
68924;DHT22;55961;52.156;20.942;2023-05-09T03:58:53;4.70;76.90
68924;DHT22;55961;52.156;20.942;2023-05-09T04:01:19;4.80;77.40
68924;DHT22;55961;52.156;20.942;2023-05-09T04:03:45;4.80;77.10
68924;DHT22;55961;52.156;20.942;2023-05-09T04:06:11;4.80;77.00
68924;DHT22;55961;52.156;20.942;2023-05-09T04:08:37;4.80;76.90
68924;DHT22;55961;52.156;20.942;2023-05-09T04:11:03;4.80;76.50
68924;DHT22;55961;52.156;20.942;2023-05-09T04:13:29;4.80;76.20
68924;DHT22;55961;52.156;20.942;2023-05-09T04:15:56;4.90;75.90
68924;DHT22;55961;52.156;20.942;2023-05-09T04:18:22;4.90;75.30
68924;DHT22;55961;52.156;20.942;2023-05-09T04:20:48;4.90;75.20
68924;DHT22;55961;52.156;20.942;2023-05-09T04:23:14;5.00;75.00
68924;DHT22;55961;52.156;20.942;2023-05-09T04:25:40;5.10;74.70
68924;DHT22;55961;52.156;20.942;2023-05-09T04:28:05;5.10;74.50
68924;DHT22;55961;52.156;20.942;2023-05-09T04:30:31;5.20;74.10
68924;DHT22;55961;52.156;20.942;2023-05-09T04:32:57;5.20;74.00
68924;DHT22;55961;52.156;20.942;2023-05-09T04:35:23;5.30;73.60
68924;DHT22;55961;52.156;20.942;2023-05-09T04:37:50;5.30;73.60
68924;DHT22;55961;52.156;20.942;2023-05-09T04:40:16;5.40;73.20
68924;DHT22;55961;52.156;20.942;2023-05-09T04:42:42;5.50;72.90
68924;DHT22;55961;52.156;20.942;2023-05-09T04:45:08;5.60;72.20
68924;DHT22;55961;52.156;20.942;2023-05-09T04:47:36;5.70;72.00
68924;DHT22;55961;52.156;20.942;2023-05-09T04:50:03;5.80;71.50
68924;DHT22;55961;52.156;20.942;2023-05-09T04:52:32;5.80;71.40
68924;DHT22;55961;52.156;20.942;2023-05-09T04:54:58;6.00;71.20
68924;DHT22;55961;52.156;20.942;2023-05-09T04:57:24;6.00;70.60
68924;DHT22;55961;52.156;20.942;2023-05-09T04:59:50;6.20;70.20
68924;DHT22;55961;52.156;20.942;2023-05-09T05:02:17;6.30;69.90
68924;DHT22;55961;52.156;20.942;2023-05-09T05:04:44;6.40;69.50
68924;DHT22;55961;52.156;20.942;2023-05-09T05:07:10;6.50;69.00
68924;DHT22;55961;52.156;20.942;2023-05-09T05:09:36;6.70;68.20
68924;DHT22;55961;52.156;20.942;2023-05-09T05:15:42;7.00;66.20
68924;DHT22;55961;52.156;20.942;2023-05-09T05:18:08;7.20;66.10
68924;DHT22;55961;52.156;20.942;2023-05-09T05:20:34;7.40;65.30
68924;DHT22;55961;52.156;20.942;2023-05-09T05:23:00;7.50;64.20
68924;DHT22;55961;52.156;20.942;2023-05-09T05:25:26;7.70;63.90
68924;DHT22;55961;52.156;20.942;2023-05-09T05:27:52;7.90;63.60
68924;DHT22;55961;52.156;20.942;2023-05-09T05:30:18;8.00;62.50
68924;DHT22;55961;52.156;20.942;2023-05-09T05:32:45;8.20;61.50
68924;DHT22;55961;52.156;20.942;2023-05-09T05:35:11;8.40;60.30
68924;DHT22;55961;52.156;20.942;2023-05-09T05:37:38;8.60;59.70
68924;DHT22;55961;52.156;20.942;2023-05-09T05:40:05;8.70;59.80
68924;DHT22;55961;52.156;20.942;2023-05-09T05:42:32;8.90;58.40
68924;DHT22;55961;52.156;20.942;2023-05-09T05:44:58;9.10;58.00
68924;DHT22;55961;52.156;20.942;2023-05-09T05:47:35;9.30;57.80
68924;DHT22;55961;52.156;20.942;2023-05-09T05:50:03;9.40;57.30
68924;DHT22;55961;52.156;20.942;2023-05-09T05:52:31;9.60;56.70
68924;DHT22;55961;52.156;20.942;2023-05-09T05:54:57;9.80;55.90
68924;DHT22;55961;52.156;20.942;2023-05-09T05:57:23;10.00;56.10
68924;DHT22;55961;52.156;20.942;2023-05-09T05:59:50;10.20;54.00
68924;DHT22;55961;52.156;20.942;2023-05-09T06:02:16;10.40;53.70
68924;DHT22;55961;52.156;20.942;2023-05-09T06:04:42;10.50;54.30
68924;DHT22;55961;52.156;20.942;2023-05-09T06:07:10;10.70;53.40
68924;DHT22;55961;52.156;20.942;2023-05-09T06:09:36;10.90;52.30
68924;DHT22;55961;52.156;20.942;2023-05-09T06:12:02;11.10;51.20
68924;DHT22;55961;52.156;20.942;2023-05-09T06:14:28;11.30;48.50
68924;DHT22;55961;52.156;20.942;2023-05-09T06:16:54;11.50;49.20
68924;DHT22;55961;52.156;20.942;2023-05-09T06:19:20;11.70;48.80
68924;DHT22;55961;52.156;20.942;2023-05-09T06:21:47;11.90;46.80
68924;DHT22;55961;52.156;20.942;2023-05-09T06:24:12;12.10;46.00
68924;DHT22;55961;52.156;20.942;2023-05-09T06:26:38;12.30;45.80
68924;DHT22;55961;52.156;20.942;2023-05-09T06:29:04;12.50;44.30
68924;DHT22;55961;52.156;20.942;2023-05-09T06:31:31;12.60;44.60
68924;DHT22;55961;52.156;20.942;2023-05-09T06:33:57;12.80;44.60
68924;DHT22;55961;52.156;20.942;2023-05-09T06:36:23;13.00;44.00
68924;DHT22;55961;52.156;20.942;2023-05-09T06:38:49;13.20;43.20
68924;DHT22;55961;52.156;20.942;2023-05-09T06:41:15;13.40;42.70
68924;DHT22;55961;52.156;20.942;2023-05-09T06:43:41;13.60;40.80
68924;DHT22;55961;52.156;20.942;2023-05-09T06:46:07;13.70;41.60
68924;DHT22;55961;52.156;20.942;2023-05-09T06:48:33;13.80;39.40
68924;DHT22;55961;52.156;20.942;2023-05-09T06:50:59;13.90;40.30
68924;DHT22;55961;52.156;20.942;2023-05-09T06:53:24;14.10;40.90
68924;DHT22;55961;52.156;20.942;2023-05-09T06:55:51;14.20;41.10
68924;DHT22;55961;52.156;20.942;2023-05-09T06:58:16;14.30;41.50
68924;DHT22;55961;52.156;20.942;2023-05-09T07:00:43;14.50;40.50
68924;DHT22;55961;52.156;20.942;2023-05-09T07:03:08;14.70;39.60
68924;DHT22;55961;52.156;20.942;2023-05-09T07:05:35;14.80;39.50
68924;DHT22;55961;52.156;20.942;2023-05-09T07:08:01;15.00;38.60
68924;DHT22;55961;52.156;20.942;2023-05-09T07:10:27;15.10;37.90
68924;DHT22;55961;52.156;20.942;2023-05-09T07:12:53;15.20;37.90
68924;DHT22;55961;52.156;20.942;2023-05-09T07:15:19;15.30;37.40
68924;DHT22;55961;52.156;20.942;2023-05-09T07:17:45;15.40;37.80
68924;DHT22;55961;52.156;20.942;2023-05-09T07:20:11;15.50;39.40
68924;DHT22;55961;52.156;20.942;2023-05-09T07:22:37;15.60;38.20
68924;DHT22;55961;52.156;20.942;2023-05-09T07:25:08;15.80;39.40
68924;DHT22;55961;52.156;20.942;2023-05-09T07:27:34;15.90;36.90
68924;DHT22;55961;52.156;20.942;2023-05-09T07:30:05;16.00;37.60
68924;DHT22;55961;52.156;20.942;2023-05-09T07:32:31;16.10;36.40
68924;DHT22;55961;52.156;20.942;2023-05-09T07:34:57;16.10;36.70
68924;DHT22;55961;52.156;20.942;2023-05-09T07:37:23;16.20;36.10
68924;DHT22;55961;52.156;20.942;2023-05-09T07:39:50;16.30;35.20
68924;DHT22;55961;52.156;20.942;2023-05-09T07:42:16;16.50;34.50
68924;DHT22;55961;52.156;20.942;2023-05-09T07:44:42;16.60;34.60
68924;DHT22;55961;52.156;20.942;2023-05-09T07:47:08;16.60;33.90
68924;DHT22;55961;52.156;20.942;2023-05-09T07:49:34;16.70;33.80
68924;DHT22;55961;52.156;20.942;2023-05-09T07:52:00;16.80;33.60
68924;DHT22;55961;52.156;20.942;2023-05-09T07:54:27;16.80;33.60
68924;DHT22;55961;52.156;20.942;2023-05-09T07:56:53;16.90;33.10
68924;DHT22;55961;52.156;20.942;2023-05-09T07:59:19;17.00;32.90
68924;DHT22;55961;52.156;20.942;2023-05-09T08:01:45;17.10;32.60
68924;DHT22;55961;52.156;20.942;2023-05-09T08:04:11;17.20;33.10
68924;DHT22;55961;52.156;20.942;2023-05-09T08:06:37;17.40;33.30
68924;DHT22;55961;52.156;20.942;2023-05-09T08:09:03;17.50;32.80
68924;DHT22;55961;52.156;20.942;2023-05-09T08:11:32;17.60;33.50
68924;DHT22;55961;52.156;20.942;2023-05-09T08:13:58;17.70;32.80
68924;DHT22;55961;52.156;20.942;2023-05-09T08:16:23;17.70;31.70
68924;DHT22;55961;52.156;20.942;2023-05-09T08:18:49;17.70;31.90
68924;DHT22;55961;52.156;20.942;2023-05-09T08:21:15;17.80;32.30
68924;DHT22;55961;52.156;20.942;2023-05-09T08:23:41;17.90;32.10
68924;DHT22;55961;52.156;20.942;2023-05-09T08:26:07;17.90;31.50
68924;DHT22;55961;52.156;20.942;2023-05-09T08:28:33;18.00;30.90
68924;DHT22;55961;52.156;20.942;2023-05-09T08:30:59;18.10;30.90
68924;DHT22;55961;52.156;20.942;2023-05-09T08:33:25;18.10;30.20
68924;DHT22;55961;52.156;20.942;2023-05-09T08:35:52;18.20;30.10
68924;DHT22;55961;52.156;20.942;2023-05-09T08:38:18;18.30;31.00
68924;DHT22;55961;52.156;20.942;2023-05-09T08:40:45;18.40;30.90
68924;DHT22;55961;52.156;20.942;2023-05-09T08:43:12;18.50;30.40
68924;DHT22;55961;52.156;20.942;2023-05-09T08:45:45;18.60;29.90
68924;DHT22;55961;52.156;20.942;2023-05-09T08:48:14;18.60;29.90
68924;DHT22;55961;52.156;20.942;2023-05-09T08:50:42;18.70;29.70
68924;DHT22;55961;52.156;20.942;2023-05-09T08:53:08;18.80;30.00
68924;DHT22;55961;52.156;20.942;2023-05-09T08:55:34;18.80;28.90
68924;DHT22;55961;52.156;20.942;2023-05-09T08:58:01;18.80;29.60
68924;DHT22;55961;52.156;20.942;2023-05-09T09:00:27;18.90;28.80
68924;DHT22;55961;52.156;20.942;2023-05-09T09:02:56;19.10;29.00
68924;DHT22;55961;52.156;20.942;2023-05-09T09:05:23;19.10;28.50
68924;DHT22;55961;52.156;20.942;2023-05-09T09:07:49;19.20;29.00
68924;DHT22;55961;52.156;20.942;2023-05-09T09:10:15;19.20;28.60
68924;DHT22;55961;52.156;20.942;2023-05-09T09:12:42;19.30;28.80
68924;DHT22;55961;52.156;20.942;2023-05-09T09:15:14;19.40;28.70
68924;DHT22;55961;52.156;20.942;2023-05-09T09:17:42;19.50;28.40
68924;DHT22;55961;52.156;20.942;2023-05-09T09:20:12;19.50;28.50
68924;DHT22;55961;52.156;20.942;2023-05-09T09:22:42;19.60;28.10
68924;DHT22;55961;52.156;20.942;2023-05-09T09:25:08;19.60;28.00
68924;DHT22;55961;52.156;20.942;2023-05-09T09:27:34;19.70;28.40
68924;DHT22;55961;52.156;20.942;2023-05-09T09:30:10;19.80;27.50
68924;DHT22;55961;52.156;20.942;2023-05-09T09:32:37;19.90;27.60
68924;DHT22;55961;52.156;20.942;2023-05-09T09:35:08;19.90;27.50
68924;DHT22;55961;52.156;20.942;2023-05-09T09:37:35;20.00;27.20
68924;DHT22;55961;52.156;20.942;2023-05-09T09:40:02;20.20;28.00
68924;DHT22;55961;52.156;20.942;2023-05-09T09:42:43;20.20;27.80
68924;DHT22;55961;52.156;20.942;2023-05-09T09:45:11;20.20;27.50
68924;DHT22;55961;52.156;20.942;2023-05-09T09:47:39;20.20;27.90
68924;DHT22;55961;52.156;20.942;2023-05-09T09:55:08;20.30;27.70
68924;DHT22;55961;52.156;20.942;2023-05-09T09:57:35;20.40;26.60
68924;DHT22;55961;52.156;20.942;2023-05-09T10:00:03;20.50;27.20
68924;DHT22;55961;52.156;20.942;2023-05-09T10:02:31;20.60;26.60
68924;DHT22;55961;52.156;20.942;2023-05-09T10:05:08;20.60;27.60
68924;DHT22;55961;52.156;20.942;2023-05-09T10:07:34;20.70;26.70
68924;DHT22;55961;52.156;20.942;2023-05-09T10:10:01;20.70;26.70
68924;DHT22;55961;52.156;20.942;2023-05-09T10:12:35;20.80;26.90
68924;DHT22;55961;52.156;20.942;2023-05-09T10:15:08;20.90;26.80
68924;DHT22;55961;52.156;20.942;2023-05-09T10:17:35;20.90;26.60
68924;DHT22;55961;52.156;20.942;2023-05-09T10:20:03;21.00;27.00
68924;DHT22;55961;52.156;20.942;2023-05-09T10:22:31;21.00;27.60
68924;DHT22;55961;52.156;20.942;2023-05-09T10:25:06;21.10;26.80
68924;DHT22;55961;52.156;20.942;2023-05-09T10:27:36;21.10;26.50
68924;DHT22;55961;52.156;20.942;2023-05-09T10:33:02;21.20;27.40
68924;DHT22;55961;52.156;20.942;2023-05-09T10:35:48;21.30;28.60
68924;DHT22;55961;52.156;20.942;2023-05-09T10:38:15;21.30;27.70
68924;DHT22;55961;52.156;20.942;2023-05-09T10:40:42;21.40;27.40
68924;DHT22;55961;52.156;20.942;2023-05-09T10:43:11;21.50;27.80
68924;DHT22;55961;52.156;20.942;2023-05-09T10:45:38;21.50;27.60
68924;DHT22;55961;52.156;20.942;2023-05-09T10:48:05;21.60;27.50
68924;DHT22;55961;52.156;20.942;2023-05-09T10:50:34;21.70;27.80
68924;DHT22;55961;52.156;20.942;2023-05-09T10:55:36;21.90;28.20
68924;DHT22;55961;52.156;20.942;2023-05-09T10:58:24;21.90;27.10
68924;DHT22;55961;52.156;20.942;2023-05-09T11:00:52;21.80;26.90
68924;DHT22;55961;52.156;20.942;2023-05-09T11:03:18;21.80;26.20
68924;DHT22;55961;52.156;20.942;2023-05-09T11:05:46;21.70;27.10
68924;DHT22;55961;52.156;20.942;2023-05-09T11:08:19;21.70;26.90
68924;DHT22;55961;52.156;20.942;2023-05-09T11:10:45;21.80;26.90
68924;DHT22;55961;52.156;20.942;2023-05-09T11:13:11;21.80;26.90
68924;DHT22;55961;52.156;20.942;2023-05-09T11:18:18;22.00;27.10
68924;DHT22;55961;52.156;20.942;2023-05-09T11:20:47;22.10;26.50
68924;DHT22;55961;52.156;20.942;2023-05-09T11:23:18;22.10;26.70
68924;DHT22;55961;52.156;20.942;2023-05-09T11:25:48;22.10;26.50
68924;DHT22;55961;52.156;20.942;2023-05-09T11:28:36;22.00;26.60
68924;DHT22;55961;52.156;20.942;2023-05-09T11:31:13;22.10;26.80
68924;DHT22;55961;52.156;20.942;2023-05-09T11:33:40;22.10;27.20
68924;DHT22;55961;52.156;20.942;2023-05-09T11:39:08;22.30;25.40
68924;DHT22;55961;52.156;20.942;2023-05-09T11:41:41;22.40;26.30
68924;DHT22;55961;52.156;20.942;2023-05-09T11:44:18;22.50;26.10
68924;DHT22;55961;52.156;20.942;2023-05-09T11:46:45;22.50;25.60
68924;DHT22;55961;52.156;20.942;2023-05-09T11:49:12;22.50;26.10
68924;DHT22;55961;52.156;20.942;2023-05-09T11:51:39;22.60;25.40
68924;DHT22;55961;52.156;20.942;2023-05-09T11:54:06;22.60;26.20
68924;DHT22;55961;52.156;20.942;2023-05-09T11:56:34;22.60;26.80
68924;DHT22;55961;52.156;20.942;2023-05-09T11:59:00;22.50;26.70
68924;DHT22;55961;52.156;20.942;2023-05-09T12:01:30;22.60;26.30
68924;DHT22;55961;52.156;20.942;2023-05-09T12:04:00;22.60;26.30
68924;DHT22;55961;52.156;20.942;2023-05-09T12:06:26;22.70;26.60
68924;DHT22;55961;52.156;20.942;2023-05-09T12:08:54;22.80;26.70
68924;DHT22;55961;52.156;20.942;2023-05-09T12:11:20;22.80;26.40
68924;DHT22;55961;52.156;20.942;2023-05-09T12:13:47;22.90;26.20
68924;DHT22;55961;52.156;20.942;2023-05-09T12:16:15;22.90;25.20
68924;DHT22;55961;52.156;20.942;2023-05-09T12:18:48;22.80;25.40
68924;DHT22;55961;52.156;20.942;2023-05-09T12:21:15;22.70;26.10
68924;DHT22;55961;52.156;20.942;2023-05-09T12:23:41;22.80;26.40
68924;DHT22;55961;52.156;20.942;2023-05-09T12:26:08;22.90;26.00
68924;DHT22;55961;52.156;20.942;2023-05-09T12:28:35;22.90;26.60
68924;DHT22;55961;52.156;20.942;2023-05-09T12:31:01;23.00;26.30
68924;DHT22;55961;52.156;20.942;2023-05-09T12:33:28;22.90;26.00
68924;DHT22;55961;52.156;20.942;2023-05-09T12:36:02;22.90;26.30
68924;DHT22;55961;52.156;20.942;2023-05-09T12:38:29;22.90;26.00
68924;DHT22;55961;52.156;20.942;2023-05-09T12:41:09;22.80;26.70
68924;DHT22;55961;52.156;20.942;2023-05-09T12:43:37;22.80;26.40
68924;DHT22;55961;52.156;20.942;2023-05-09T12:46:04;22.70;25.30
68924;DHT22;55961;52.156;20.942;2023-05-09T12:48:35;22.60;25.60
68924;DHT22;55961;52.156;20.942;2023-05-09T12:51:06;22.50;25.90
68924;DHT22;55961;52.156;20.942;2023-05-09T12:53:37;22.60;26.70
68924;DHT22;55961;52.156;20.942;2023-05-09T12:56:04;22.60;26.60
68924;DHT22;55961;52.156;20.942;2023-05-09T12:58:36;22.70;26.60
68924;DHT22;55961;52.156;20.942;2023-05-09T13:01:05;22.70;26.40
68924;DHT22;55961;52.156;20.942;2023-05-09T13:03:31;22.90;26.10
68924;DHT22;55961;52.156;20.942;2023-05-09T13:06:10;22.90;25.70
68924;DHT22;55961;52.156;20.942;2023-05-09T13:08:38;22.90;25.90
68924;DHT22;55961;52.156;20.942;2023-05-09T13:11:04;23.00;25.80
68924;DHT22;55961;52.156;20.942;2023-05-09T13:13:30;23.00;26.10
68924;DHT22;55961;52.156;20.942;2023-05-09T13:15:56;23.10;26.20
68924;DHT22;55961;52.156;20.942;2023-05-09T13:18:22;23.00;26.20
68924;DHT22;55961;52.156;20.942;2023-05-09T13:20:51;23.00;25.50
68924;DHT22;55961;52.156;20.942;2023-05-09T13:23:17;23.00;25.70
68924;DHT22;55961;52.156;20.942;2023-05-09T13:25:43;23.00;25.70
68924;DHT22;55961;52.156;20.942;2023-05-09T13:28:09;23.00;26.00
68924;DHT22;55961;52.156;20.942;2023-05-09T13:30:35;23.00;26.20
68924;DHT22;55961;52.156;20.942;2023-05-09T13:33:01;23.00;25.90
68924;DHT22;55961;52.156;20.942;2023-05-09T13:35:27;23.00;26.00
68924;DHT22;55961;52.156;20.942;2023-05-09T13:37:53;22.90;26.50
68924;DHT22;55961;52.156;20.942;2023-05-09T13:40:19;22.90;25.50
68924;DHT22;55961;52.156;20.942;2023-05-09T13:42:45;22.80;26.30
68924;DHT22;55961;52.156;20.942;2023-05-09T13:45:13;22.90;26.90
68924;DHT22;55961;52.156;20.942;2023-05-09T13:47:39;22.90;26.10
68924;DHT22;55961;52.156;20.942;2023-05-09T13:50:06;22.80;26.00
68924;DHT22;55961;52.156;20.942;2023-05-09T13:52:33;22.70;25.70
68924;DHT22;55961;52.156;20.942;2023-05-09T13:54:58;22.60;26.10
68924;DHT22;55961;52.156;20.942;2023-05-09T13:57:24;22.60;25.90
68924;DHT22;55961;52.156;20.942;2023-05-09T13:59:50;22.60;26.50
68924;DHT22;55961;52.156;20.942;2023-05-09T14:02:16;22.60;26.60
68924;DHT22;55961;52.156;20.942;2023-05-09T14:04:43;22.60;26.20
68924;DHT22;55961;52.156;20.942;2023-05-09T14:07:09;22.60;26.10
68924;DHT22;55961;52.156;20.942;2023-05-09T14:09:37;22.60;26.00
68924;DHT22;55961;52.156;20.942;2023-05-09T14:12:05;22.50;26.20
68924;DHT22;55961;52.156;20.942;2023-05-09T14:14:30;22.50;26.80
68924;DHT22;55961;52.156;20.942;2023-05-09T14:16:57;22.60;26.80
68924;DHT22;55961;52.156;20.942;2023-05-09T14:19:25;22.50;26.60
68924;DHT22;55961;52.156;20.942;2023-05-09T14:21:55;22.40;26.20
68924;DHT22;55961;52.156;20.942;2023-05-09T14:24:21;22.30;26.40
68924;DHT22;55961;52.156;20.942;2023-05-09T14:26:47;22.30;26.60
68924;DHT22;55961;52.156;20.942;2023-05-09T14:29:12;22.30;26.50
68924;DHT22;55961;52.156;20.942;2023-05-09T14:31:39;22.30;26.60
68924;DHT22;55961;52.156;20.942;2023-05-09T14:34:04;22.30;26.50
68924;DHT22;55961;52.156;20.942;2023-05-09T14:36:31;22.30;26.70
68924;DHT22;55961;52.156;20.942;2023-05-09T14:38:57;22.30;27.40
68924;DHT22;55961;52.156;20.942;2023-05-09T14:41:23;22.40;27.00
68924;DHT22;55961;52.156;20.942;2023-05-09T14:43:49;22.50;26.80
68924;DHT22;55961;52.156;20.942;2023-05-09T14:46:15;22.50;26.90
68924;DHT22;55961;52.156;20.942;2023-05-09T14:48:41;22.50;27.10
68924;DHT22;55961;52.156;20.942;2023-05-09T14:51:07;22.50;27.00
68924;DHT22;55961;52.156;20.942;2023-05-09T14:53:33;22.50;27.00
68924;DHT22;55961;52.156;20.942;2023-05-09T14:56:07;22.60;26.40
68924;DHT22;55961;52.156;20.942;2023-05-09T14:58:33;22.50;26.60
68924;DHT22;55961;52.156;20.942;2023-05-09T15:00:59;22.50;26.70
68924;DHT22;55961;52.156;20.942;2023-05-09T15:03:26;22.50;26.70
68924;DHT22;55961;52.156;20.942;2023-05-09T15:05:52;22.50;26.00
68924;DHT22;55961;52.156;20.942;2023-05-09T15:08:18;22.40;26.70
68924;DHT22;55961;52.156;20.942;2023-05-09T15:10:45;22.40;26.60
68924;DHT22;55961;52.156;20.942;2023-05-09T15:13:11;22.30;25.90
68924;DHT22;55961;52.156;20.942;2023-05-09T15:15:37;22.20;25.80
68924;DHT22;55961;52.156;20.942;2023-05-09T15:18:04;22.10;25.50
68924;DHT22;55961;52.156;20.942;2023-05-09T15:20:30;21.90;26.70
68924;DHT22;55961;52.156;20.942;2023-05-09T15:22:56;21.90;26.70
68924;DHT22;55961;52.156;20.942;2023-05-09T15:25:22;21.90;26.10
68924;DHT22;55961;52.156;20.942;2023-05-09T15:27:48;21.90;26.30
68924;DHT22;55961;52.156;20.942;2023-05-09T15:30:17;21.80;26.60
68924;DHT22;55961;52.156;20.942;2023-05-09T15:32:43;21.80;27.00
68924;DHT22;55961;52.156;20.942;2023-05-09T15:35:09;21.70;26.90
68924;DHT22;55961;52.156;20.942;2023-05-09T15:37:35;21.70;26.70
68924;DHT22;55961;52.156;20.942;2023-05-09T15:40:01;21.60;26.70
68924;DHT22;55961;52.156;20.942;2023-05-09T15:42:27;21.50;27.10
68924;DHT22;55961;52.156;20.942;2023-05-09T15:44:53;21.40;27.30
68924;DHT22;55961;52.156;20.942;2023-05-09T15:47:19;21.30;26.80
68924;DHT22;55961;52.156;20.942;2023-05-09T15:49:45;21.20;27.50
68924;DHT22;55961;52.156;20.942;2023-05-09T15:52:11;21.10;27.50
68924;DHT22;55961;52.156;20.942;2023-05-09T15:54:37;21.00;27.50